createdAt,value
2022-12-01T00:00:05.353Z,83.2
2022-12-01T00:01:08.454Z,83.2
2022-12-01T00:02:12.392Z,83.1
2022-12-01T00:03:16.808Z,83
2022-12-01T00:04:21.456Z,82.9
2022-12-01T00:05:24.322Z,82.9
2022-12-01T00:06:27.610Z,82.9
2022-12-01T00:07:30.597Z,82.8
2022-12-01T00:08:33.817Z,82.9
2022-12-01T00:09:36.904Z,83
2022-12-01T00:10:39.109Z,83
2022-12-01T00:11:42.191Z,82.8
2022-12-01T00:12:44.969Z,82.8
2022-12-01T00:13:47.495Z,82.8
2022-12-01T00:14:49.922Z,82.8
2022-12-01T00:15:53.296Z,82.9
2022-12-01T00:16:57.221Z,82.9
2022-12-01T00:18:00.450Z,82.9
2022-12-01T00:19:03.235Z,82.9
2022-12-01T00:20:07.346Z,82.8
2022-12-01T00:21:09.790Z,82.8
2022-12-01T00:22:13.639Z,82.9
2022-12-01T00:23:16.345Z,82.9
2022-12-01T00:24:19.256Z,83
2022-12-01T00:25:22.814Z,82.8
2022-12-01T00:26:26.068Z,82.7
2022-12-01T00:27:29.200Z,82.6
2022-12-01T00:28:32.636Z,82.6
2022-12-01T00:29:35.794Z,82.7
2022-12-01T00:30:38.907Z,82.6
2022-12-01T00:31:41.527Z,82.8
2022-12-01T00:32:44.415Z,82.9
2022-12-01T00:33:46.643Z,82.9
2022-12-01T00:34:49.752Z,82.9
2022-12-01T00:35:53.556Z,82.8
2022-12-01T00:36:57.162Z,82.8
2022-12-01T00:38:00.300Z,82.8
2022-12-01T00:39:02.446Z,82.7
2022-12-01T00:40:05.822Z,82.5
2022-12-01T00:41:08.520Z,82.6
2022-12-01T00:42:14.402Z,82.6
2022-12-01T00:43:17.180Z,82.5
2022-12-01T00:44:20.537Z,82.6
2022-12-01T00:45:22.959Z,82.6
2022-12-01T00:46:26.135Z,82.6
2022-12-01T00:47:29.411Z,82.7
2022-12-01T00:48:31.904Z,82.6
2022-12-01T00:49:34.758Z,82.6
2022-12-01T00:50:37.845Z,82.6
2022-12-01T00:51:41.884Z,82.5
2022-12-01T00:52:44.643Z,82.5
2022-12-01T00:53:47.693Z,82.4
2022-12-01T00:54:51.015Z,82.4
2022-12-01T00:55:53.703Z,82.4
2022-12-01T00:56:57.180Z,82.4
2022-12-01T00:58:00.117Z,82.3
2022-12-01T00:59:03.191Z,82.3
2022-12-01T01:00:05.698Z,82.3
2022-12-01T01:01:08.743Z,82.3
2022-12-01T01:02:12.229Z,82.3
2022-12-01T01:03:14.733Z,82.4
2022-12-01T01:04:17.788Z,82.5
2022-12-01T01:05:19.728Z,82.5
2022-12-01T01:06:22.487Z,82.4
2022-12-01T01:07:26.588Z,82.4
2022-12-01T01:08:30.039Z,82.6
2022-12-01T01:09:33.095Z,82.6
2022-12-01T01:10:35.234Z,82.7
2022-12-01T01:11:38.564Z,82.8
2022-12-01T01:12:41.552Z,82.8
2022-12-01T01:13:43.687Z,82.8
2022-12-01T01:14:46.183Z,82.7
2022-12-01T01:15:48.981Z,82.6
2022-12-01T01:16:52.750Z,82.6
2022-12-01T01:17:55.873Z,82.6
2022-12-01T01:18:58.966Z,82.6
2022-12-01T01:20:01.743Z,82.6
2022-12-01T01:21:04.513Z,82.6
2022-12-01T01:22:07.270Z,82.6
2022-12-01T01:23:10.889Z,82.5
2022-12-01T01:24:13.589Z,82.5
2022-12-01T01:25:16.945Z,82.5
2022-12-01T01:26:19.937Z,82.5
2022-12-01T01:27:22.992Z,82.6
2022-12-01T01:28:26.462Z,82.7
2022-12-01T01:29:28.967Z,82.7
2022-12-01T01:30:31.384Z,82.6
2022-12-01T01:31:34.261Z,82.6
2022-12-01T01:32:37.864Z,82.6
2022-12-01T01:33:41.368Z,82.5
2022-12-01T01:34:43.832Z,82.4
2022-12-01T01:35:46.893Z,82.5
2022-12-01T01:36:49.949Z,82.5
2022-12-01T01:37:52.703Z,82.5
2022-12-01T01:38:56.208Z,82.4
2022-12-01T01:39:59.188Z,82.4
2022-12-01T01:41:01.483Z,82.4
2022-12-01T01:42:05.189Z,82.4
2022-12-01T01:43:08.518Z,82.5
2022-12-01T01:44:11.576Z,82.4
2022-12-01T01:45:14.275Z,82.3
2022-12-01T01:46:18.001Z,82.3
2022-12-01T01:47:21.679Z,82.4
2022-12-01T01:48:24.492Z,82.4
2022-12-01T01:49:26.992Z,82.5
2022-12-01T01:50:30.265Z,82.7
2022-12-01T01:51:33.243Z,82.7
2022-12-01T01:52:36.298Z,82.7
2022-12-01T01:53:38.923Z,82.6
2022-12-01T01:54:42.700Z,82.5
2022-12-01T01:55:45.199Z,82.5
2022-12-01T01:56:47.897Z,82.4
2022-12-01T01:57:51.143Z,82.4
2022-12-01T01:58:54.283Z,82.4
2022-12-01T01:59:57.361Z,82.4
2022-12-01T02:01:00.088Z,82.3
2022-12-01T02:02:03.662Z,82.3
2022-12-01T02:03:07.289Z,82.3
2022-12-01T02:04:09.992Z,82.3
2022-12-01T02:05:12.966Z,82.3
2022-12-01T02:06:15.566Z,82.2
2022-12-01T02:07:18.064Z,82.3
2022-12-01T02:08:20.606Z,82.4
2022-12-01T02:09:23.640Z,82.3
2022-12-01T02:10:27.138Z,82.2
2022-12-01T02:11:29.716Z,82.2
2022-12-01T02:12:32.715Z,82
2022-12-01T02:13:35.419Z,82.1
2022-12-01T02:14:37.628Z,82.2
2022-12-01T02:15:40.328Z,82.1
2022-12-01T02:16:43.815Z,82
2022-12-01T02:17:47.032Z,82.1
2022-12-01T02:18:50.189Z,82.1
2022-12-01T02:19:53.319Z,82.2
2022-12-01T02:20:56.165Z,82.2
2022-12-01T02:21:59.055Z,81.9
2022-12-01T02:23:02.045Z,81.5
2022-12-01T02:24:04.816Z,81.3
2022-12-01T02:25:07.440Z,81.1
2022-12-01T02:26:11.495Z,81.2
2022-12-01T02:27:14.193Z,81.3
2022-12-01T02:28:17.388Z,81.4
2022-12-01T02:29:20.634Z,81.4
2022-12-01T02:30:23.688Z,81.4
2022-12-01T02:31:26.395Z,81.4
2022-12-01T02:32:29.371Z,81.4
2022-12-01T02:33:31.945Z,81.3
2022-12-01T02:34:35.658Z,81.3
2022-12-01T02:35:38.847Z,81.3
2022-12-01T02:36:41.271Z,81.2
2022-12-01T02:37:44.547Z,81.2
2022-12-01T02:38:47.401Z,81.1
2022-12-01T02:39:51.421Z,81
2022-12-01T02:40:54.280Z,80.9
2022-12-01T02:41:58.418Z,81
2022-12-01T02:43:01.191Z,81.1
2022-12-01T02:44:03.694Z,81.1
2022-12-01T02:45:06.108Z,81.2
2022-12-01T02:46:09.074Z,81
2022-12-01T02:47:12.262Z,81
2022-12-01T02:48:14.761Z,81.1
2022-12-01T02:49:17.185Z,81.1
2022-12-01T02:50:19.867Z,81.2
2022-12-01T02:51:22.646Z,81.2
2022-12-01T02:52:25.340Z,81.2
2022-12-01T02:53:28.442Z,81.1
2022-12-01T02:54:30.662Z,81.1
2022-12-01T02:55:33.622Z,81.1
2022-12-01T02:56:36.678Z,81.1
2022-12-01T02:57:40.516Z,81.1
2022-12-01T02:58:43.666Z,81.1
2022-12-01T02:59:47.862Z,81.2
2022-12-01T03:00:52.050Z,81.2
2022-12-01T03:01:55.360Z,81.2
2022-12-01T03:02:57.860Z,81.2
2022-12-01T03:04:01.544Z,81.1
2022-12-01T03:05:04.051Z,81.1
2022-12-01T03:06:06.829Z,81.1
2022-12-01T03:07:10.542Z,81.1
2022-12-01T03:08:13.964Z,81.1
2022-12-01T03:09:16.847Z,81.2
2022-12-01T03:10:19.828Z,81.3
2022-12-01T03:11:22.500Z,81.3
2022-12-01T03:12:25.671Z,81.3
2022-12-01T03:13:29.720Z,81.3
2022-12-01T03:14:32.724Z,81.4
2022-12-01T03:15:35.802Z,81.4
2022-12-01T03:16:38.810Z,81.5
2022-12-01T03:17:41.379Z,81.4
2022-12-01T03:18:44.234Z,81.5
2022-12-01T03:19:48.336Z,81.5
2022-12-01T03:20:52.774Z,81.6
2022-12-01T03:21:55.552Z,81.6
2022-12-01T03:22:58.945Z,81.6
2022-12-01T03:24:02.262Z,81.6
2022-12-01T03:25:05.339Z,81.7
2022-12-01T03:26:08.414Z,81.7
2022-12-01T03:27:11.741Z,81.6
2022-12-01T03:28:23.847Z,81.6
2022-12-01T03:29:27.637Z,81.4
2022-12-01T03:30:30.716Z,81.3
2022-12-01T03:31:34.166Z,81.2
2022-12-01T03:32:37.549Z,81.1
2022-12-01T03:33:39.778Z,81
2022-12-01T03:34:43.031Z,81
2022-12-01T03:35:46.079Z,81.3
2022-12-01T03:36:49.052Z,81.5
2022-12-01T03:37:51.840Z,81.7
2022-12-01T03:38:54.315Z,81.8
2022-12-01T03:40:02.991Z,81.8
2022-12-01T03:41:05.423Z,81.8
2022-12-01T03:42:08.842Z,81.8
2022-12-01T03:43:11.823Z,81.8
2022-12-01T03:44:15.214Z,81.9
2022-12-01T03:45:19.332Z,82
2022-12-01T03:46:22.937Z,82.1
2022-12-01T03:47:26.278Z,82.2
2022-12-01T03:48:29.081Z,82.3
2022-12-01T03:49:32.792Z,82.3
2022-12-01T03:50:35.679Z,82.3
2022-12-01T03:51:38.809Z,82.3
2022-12-01T03:52:42.144Z,82.4
2022-12-01T03:53:44.366Z,82.4
2022-12-01T03:54:47.217Z,82.4
2022-12-01T03:55:49.914Z,82.4
2022-12-01T03:56:53.184Z,82.4
2022-12-01T03:57:56.917Z,82.5
2022-12-01T03:59:00.048Z,82.6
2022-12-01T04:00:03.377Z,82.6
2022-12-01T04:01:07.504Z,82.7
2022-12-01T04:02:11.165Z,82.8
2022-12-01T04:03:15.275Z,82.8
2022-12-01T04:04:18.896Z,82.8
2022-12-01T04:05:26.666Z,82.8
2022-12-01T04:06:30.095Z,82.7
2022-12-01T04:07:34.012Z,82.7
2022-12-01T04:08:37.136Z,82.6
2022-12-01T04:09:39.668Z,82.6
2022-12-01T04:10:42.457Z,82.6
2022-12-01T04:11:46.165Z,82.6
2022-12-01T04:12:49.276Z,82.5
2022-12-01T04:13:52.042Z,82.5
2022-12-01T04:14:55.764Z,82.5
2022-12-01T04:15:59.265Z,82.6
2022-12-01T04:17:03.017Z,82.6
2022-12-01T04:18:06.065Z,82.7
2022-12-01T04:19:09.118Z,82.8
2022-12-01T04:20:11.542Z,82.8
2022-12-01T04:21:13.836Z,82.7
2022-12-01T04:22:16.700Z,82.8
2022-12-01T04:23:19.191Z,82.8
2022-12-01T04:24:21.682Z,82.8
2022-12-01T04:25:24.373Z,82.8
2022-12-01T04:26:27.806Z,82.7
2022-12-01T04:27:30.575Z,82.7
2022-12-01T04:28:33.442Z,82.7
2022-12-01T04:29:36.773Z,82.7
2022-12-01T04:30:39.461Z,82.8
2022-12-01T04:31:43.136Z,82.9
2022-12-01T04:32:47.384Z,83
2022-12-01T04:33:50.738Z,83
2022-12-01T04:34:53.577Z,83.1
2022-12-01T04:35:55.587Z,83.2
2022-12-01T04:36:57.726Z,83.2
2022-12-01T04:38:00.635Z,83.3
2022-12-01T04:39:03.701Z,83.5
2022-12-01T04:40:06.488Z,83.6
2022-12-01T04:41:09.249Z,83.7
2022-12-01T04:42:12.643Z,83.8
2022-12-01T04:43:15.482Z,83.8
2022-12-01T04:44:17.444Z,83.8
2022-12-01T04:45:20.281Z,83.7
2022-12-01T04:46:23.894Z,83.7
2022-12-01T04:47:27.521Z,83.7
2022-12-01T04:48:31.307Z,83.7
2022-12-01T04:49:34.465Z,83.7
2022-12-01T04:50:37.058Z,83.7
2022-12-01T04:51:39.644Z,83.7
2022-12-01T04:52:42.482Z,83.8
2022-12-01T04:53:45.201Z,83.8
2022-12-01T04:54:48.100Z,83.8
2022-12-01T04:55:51.177Z,83.8
2022-12-01T04:56:53.880Z,83.8
2022-12-01T04:57:57.352Z,83.8
2022-12-01T04:59:00.150Z,83.8
2022-12-01T05:00:03.215Z,83.8
2022-12-01T05:01:06.373Z,83.7
2022-12-01T05:02:10.323Z,83.6
2022-12-01T05:03:16.734Z,83.6
2022-12-01T05:04:20.508Z,83.5
2022-12-01T05:05:23.309Z,83.5
2022-12-01T05:06:25.731Z,83.4
2022-12-01T05:07:29.402Z,83.4
2022-12-01T05:08:32.539Z,83.4
2022-12-01T05:09:35.333Z,83.5
2022-12-01T05:10:38.105Z,83.5
2022-12-01T05:11:41.106Z,83.5
2022-12-01T05:12:44.706Z,83.5
2022-12-01T05:13:47.406Z,83.6
2022-12-01T05:14:49.981Z,83.5
2022-12-01T05:15:53.234Z,83.6
2022-12-01T05:16:55.600Z,83.6
2022-12-01T05:17:58.295Z,83.7
2022-12-01T05:19:01.688Z,83.7
2022-12-01T05:20:05.494Z,83.7
2022-12-01T05:21:08.552Z,83.6
2022-12-01T05:22:11.042Z,83.7
2022-12-01T05:23:18.410Z,83.8
2022-12-01T05:24:21.741Z,83.9
2022-12-01T05:25:24.715Z,83.9
2022-12-01T05:26:27.792Z,83.9
2022-12-01T05:27:31.500Z,83.9
2022-12-01T05:28:33.914Z,83.9
2022-12-01T05:29:37.355Z,83.9
2022-12-01T05:30:40.988Z,83.8
2022-12-01T05:31:44.780Z,83.8
2022-12-01T05:32:48.002Z,83.7
2022-12-01T05:33:50.630Z,83.7
2022-12-01T05:34:54.293Z,83.7
2022-12-01T05:35:57.865Z,83.6
2022-12-01T05:37:01.494Z,83.6
2022-12-01T05:38:09.358Z,83.6
2022-12-01T05:39:12.332Z,83.6
2022-12-01T05:40:15.377Z,83.5
2022-12-01T05:41:18.082Z,83.5
2022-12-01T05:42:20.882Z,83.5
2022-12-01T05:43:30.519Z,83.4
2022-12-01T05:44:33.593Z,83.4
2022-12-01T05:45:36.770Z,83.5
2022-12-01T05:46:39.525Z,83.5
2022-12-01T05:47:42.236Z,83.5
2022-12-01T05:48:44.803Z,83.6
2022-12-01T05:49:49.154Z,83.7
2022-12-01T05:50:52.081Z,83.7
2022-12-01T05:51:56.160Z,83.7
2022-12-01T05:52:59.493Z,83.8
2022-12-01T05:54:02.359Z,83.8
2022-12-01T05:55:05.691Z,83.8
2022-12-01T05:56:08.508Z,83.8
2022-12-01T05:57:11.558Z,83.9
2022-12-01T05:58:14.728Z,83.9
2022-12-01T05:59:16.961Z,83.9
2022-12-01T06:00:20.358Z,84
2022-12-01T06:01:23.413Z,84.1
2022-12-01T06:02:26.981Z,84.1
2022-12-01T06:03:29.839Z,84.2
2022-12-01T06:04:32.512Z,84.2
2022-12-01T06:05:35.288Z,84.2
2022-12-01T06:06:38.289Z,84.1
2022-12-01T06:07:42.414Z,84.1
2022-12-01T06:08:45.042Z,84.1
2022-12-01T06:09:49.746Z,84.1
2022-12-01T06:10:52.829Z,84.2
2022-12-01T06:11:56.239Z,84.3
2022-12-01T06:12:59.353Z,84.4
2022-12-01T06:14:02.393Z,84.4
2022-12-01T06:15:05.256Z,84.5
2022-12-01T06:16:08.326Z,84.5
2022-12-01T06:17:11.111Z,84.5
2022-12-01T06:18:14.505Z,84.4
2022-12-01T06:19:17.775Z,84.5
2022-12-01T06:20:21.186Z,84.5
2022-12-01T06:21:24.257Z,84.5
2022-12-01T06:22:27.401Z,84.5
2022-12-01T06:23:32.263Z,84.5
2022-12-01T06:24:34.958Z,84.5
2022-12-01T06:25:38.020Z,84.4
2022-12-01T06:26:41.008Z,84.3
2022-12-01T06:27:43.424Z,84.3
2022-12-01T06:28:46.176Z,84.3
2022-12-01T06:29:50.140Z,84.3
2022-12-01T06:31:04.089Z,84.2
2022-12-01T06:32:07.108Z,84.1
2022-12-01T06:33:09.995Z,84
2022-12-01T06:34:12.757Z,84.1
2022-12-01T06:35:15.842Z,84.1
2022-12-01T06:36:18.341Z,84.2
2022-12-01T06:37:21.662Z,84.2
2022-12-01T06:38:24.130Z,84.1
2022-12-01T06:39:27.958Z,84
2022-12-01T06:40:30.368Z,84
2022-12-01T06:41:33.473Z,83.9
2022-12-01T06:42:36.723Z,84
2022-12-01T06:43:39.770Z,84.1
2022-12-01T06:44:43.136Z,84.1
2022-12-01T06:45:46.614Z,83.9
2022-12-01T06:46:49.854Z,83.8
2022-12-01T06:47:52.301Z,83.8
2022-12-01T06:48:55.406Z,83.8
2022-12-01T06:49:57.882Z,83.7
2022-12-01T06:51:00.992Z,83.5
2022-12-01T06:52:03.407Z,83.4
2022-12-01T06:53:05.977Z,83.2
2022-12-01T06:54:08.720Z,83.1
2022-12-01T06:55:12.803Z,83
2022-12-01T06:56:16.984Z,82.9
2022-12-01T06:57:22.300Z,82.8
2022-12-01T06:58:26.971Z,82.8
2022-12-01T06:59:31.400Z,82.8
2022-12-01T07:00:35.688Z,82.7
2022-12-01T07:01:38.207Z,82.7
2022-12-01T07:02:41.175Z,82.8
2022-12-01T07:03:44.392Z,82.8
2022-12-01T07:04:47.516Z,82.7
2022-12-01T07:05:49.739Z,82.8
2022-12-01T07:06:53.013Z,82.7
2022-12-01T07:08:00.667Z,82.7
2022-12-01T07:09:03.679Z,82.8
2022-12-01T07:10:07.162Z,82.7
2022-12-01T07:11:11.017Z,82.8
2022-12-01T07:12:14.157Z,82.8
2022-12-01T07:13:17.583Z,82.7
2022-12-01T07:14:20.354Z,82.9
2022-12-01T07:15:23.349Z,83
2022-12-01T07:16:26.796Z,83
2022-12-01T07:17:30.412Z,83.1
2022-12-01T07:18:33.474Z,83
2022-12-01T07:19:36.172Z,83.1
2022-12-01T07:20:39.012Z,83
2022-12-01T07:21:42.331Z,83
2022-12-01T07:22:45.671Z,83.1
2022-12-01T07:23:48.731Z,83.1
2022-12-01T07:24:51.431Z,83.2
2022-12-01T07:25:54.265Z,83.2
2022-12-01T07:26:58.052Z,83.2
2022-12-01T07:28:00.687Z,83.3
2022-12-01T07:29:04.308Z,83.2
2022-12-01T07:30:07.359Z,83.3
2022-12-01T07:31:10.388Z,83.4
2022-12-01T07:32:13.762Z,83.5
2022-12-01T07:33:17.451Z,83.4
2022-12-01T07:34:20.504Z,83.3
2022-12-01T07:35:23.482Z,83.3
2022-12-01T07:36:26.701Z,83.3
2022-12-01T07:37:29.675Z,83.2
2022-12-01T07:38:33.220Z,83.2
2022-12-01T07:39:36.122Z,83.2
2022-12-01T07:40:38.974Z,83.3
2022-12-01T07:41:41.999Z,83.4
2022-12-01T07:42:46.047Z,83.4
2022-12-01T07:43:48.068Z,83.1
2022-12-01T07:44:50.777Z,83
2022-12-01T07:45:53.839Z,83
2022-12-01T07:46:56.629Z,83.1
2022-12-01T07:48:00.060Z,83.2
2022-12-01T07:49:02.851Z,83.2
2022-12-01T07:50:05.824Z,83.1
2022-12-01T07:51:09.257Z,83.1
2022-12-01T07:52:12.031Z,83
2022-12-01T07:53:14.799Z,82.9
2022-12-01T07:54:17.516Z,82.9
2022-12-01T07:55:20.316Z,82.8
2022-12-01T07:56:23.815Z,82.8
2022-12-01T07:57:26.862Z,82.8
2022-12-01T07:58:30.703Z,82.7
2022-12-01T07:59:33.393Z,82.7
2022-12-01T08:00:36.927Z,82.8
2022-12-01T08:01:45.822Z,82.8
2022-12-01T08:02:49.504Z,82.9
2022-12-01T08:03:53.486Z,82.9
2022-12-01T08:04:56.738Z,82.9
2022-12-01T08:05:59.964Z,82.9
2022-12-01T08:07:03.053Z,82.9
2022-12-01T08:08:06.412Z,83
2022-12-01T08:09:10.103Z,83.1
2022-12-01T08:10:13.727Z,83.1
2022-12-01T08:11:17.213Z,83.1
2022-12-01T08:12:19.901Z,83.1
2022-12-01T08:13:23.610Z,83.1
2022-12-01T08:14:27.684Z,83.1
2022-12-01T08:15:31.085Z,83.1
2022-12-01T08:16:34.242Z,83.1
2022-12-01T08:17:37.302Z,83.1
2022-12-01T08:18:40.539Z,83.2
2022-12-01T08:19:43.508Z,83.2
2022-12-01T08:20:46.870Z,83.3
2022-12-01T08:21:50.591Z,83.4
2022-12-01T08:22:53.688Z,83.5
2022-12-01T08:23:56.446Z,83.4
2022-12-01T08:24:59.297Z,83.3
2022-12-01T08:26:02.560Z,83.2
2022-12-01T08:27:05.984Z,83.2
2022-12-01T08:28:09.131Z,83.3
2022-12-01T08:29:21.499Z,83.4
2022-12-01T08:30:25.366Z,83.5
2022-12-01T08:31:28.564Z,83.6
2022-12-01T08:32:32.234Z,83.8
2022-12-01T08:33:35.344Z,83.8
2022-12-01T08:34:38.496Z,83.8
2022-12-01T08:35:40.995Z,83.9
2022-12-01T08:36:44.055Z,83.8
2022-12-01T08:37:46.912Z,83.8
2022-12-01T08:38:50.609Z,83.7
2022-12-01T08:39:53.364Z,83.7
2022-12-01T08:40:56.251Z,83.8
2022-12-01T08:41:59.042Z,83.8
2022-12-01T08:43:02.425Z,83.8
2022-12-01T08:44:05.573Z,83.9
2022-12-01T08:45:08.665Z,83.9
2022-12-01T08:46:12.981Z,83.9
2022-12-01T08:47:19.886Z,83.9
2022-12-01T08:48:23.285Z,83.9
2022-12-01T08:49:26.149Z,83.8
2022-12-01T08:50:29.337Z,83.8
2022-12-01T08:51:32.340Z,83.8
2022-12-01T08:52:35.391Z,83.7
2022-12-01T08:53:46.694Z,83.8
2022-12-01T08:54:50.597Z,83.8
2022-12-01T08:55:53.303Z,83.7
2022-12-01T08:56:56.633Z,83.7
2022-12-01T08:57:59.974Z,83.6
2022-12-01T08:59:02.750Z,83.5
2022-12-01T09:00:05.617Z,83.5
2022-12-01T09:01:08.996Z,83.5
2022-12-01T09:02:13.222Z,83.5
2022-12-01T09:03:15.918Z,83.5
2022-12-01T09:04:18.222Z,83.5
2022-12-01T09:05:21.101Z,83.4
2022-12-01T09:06:24.805Z,83.4
2022-12-01T09:07:28.839Z,83.4
2022-12-01T09:08:32.010Z,83.4
2022-12-01T09:09:35.719Z,83.5
2022-12-01T09:10:38.219Z,83.6
2022-12-01T09:11:41.285Z,83.7
2022-12-01T09:12:44.359Z,83.8
2022-12-01T09:13:55.831Z,83.7
2022-12-01T09:14:59.215Z,83.6
2022-12-01T09:16:02.618Z,83.7
2022-12-01T09:17:06.204Z,83.7
2022-12-01T09:18:10.059Z,83.6
2022-12-01T09:19:25.285Z,83.6
2022-12-01T09:20:28.487Z,83.6
2022-12-01T09:21:31.648Z,83.5
2022-12-01T09:22:35.088Z,83.6
2022-12-01T09:23:38.131Z,83.7
2022-12-01T09:24:41.469Z,83.8
2022-12-01T09:25:44.679Z,83.9
2022-12-01T09:26:47.654Z,83.9
2022-12-01T09:27:50.075Z,83.8
2022-12-01T09:28:53.226Z,83.9
2022-12-01T09:29:56.882Z,83.9
2022-12-01T09:31:00.245Z,83.9
2022-12-01T09:32:04.161Z,84
2022-12-01T09:33:07.881Z,84.1
2022-12-01T09:34:11.658Z,84.1
2022-12-01T09:35:14.649Z,84.2
2022-12-01T09:36:25.185Z,84.3
2022-12-01T09:37:27.959Z,84.3
2022-12-01T09:38:30.812Z,84.3
2022-12-01T09:39:34.218Z,84.5
2022-12-01T09:40:37.725Z,84.4
2022-12-01T09:41:40.831Z,84.3
2022-12-01T09:42:43.930Z,84.2
2022-12-01T09:43:46.793Z,84.1
2022-12-01T09:44:49.856Z,84
2022-12-01T09:45:53.313Z,83.9
2022-12-01T09:46:56.904Z,83.9
2022-12-01T09:48:00.250Z,83.9
2022-12-01T09:49:03.675Z,83.9
2022-12-01T09:50:07.765Z,83.9
2022-12-01T09:51:11.544Z,83.9
2022-12-01T09:52:14.982Z,83.8
2022-12-01T09:53:18.271Z,83.8
2022-12-01T09:54:21.586Z,83.8
2022-12-01T09:55:24.983Z,83.8
2022-12-01T09:56:28.121Z,83.7
2022-12-01T09:57:32.110Z,83.8
2022-12-01T09:58:34.397Z,83.8
2022-12-01T09:59:37.284Z,83.8
2022-12-01T10:00:40.670Z,83.8
2022-12-01T10:01:44.313Z,83.7
2022-12-01T10:02:47.526Z,83.7
2022-12-01T10:03:50.231Z,83.8
2022-12-01T10:04:53.978Z,83.8
2022-12-01T10:06:30.209Z,83.8
2022-12-01T10:07:34.406Z,83.7
2022-12-01T10:08:37.391Z,83.6
2022-12-01T10:09:39.901Z,83.6
2022-12-01T10:10:42.335Z,83.6
2022-12-01T10:11:45.056Z,83.5
2022-12-01T10:12:47.886Z,83.5
2022-12-01T10:13:51.872Z,83.6
2022-12-01T10:14:54.868Z,83.5
2022-12-01T10:15:58.997Z,83.4
2022-12-01T10:17:02.390Z,83.4
2022-12-01T10:18:05.195Z,83.2
2022-12-01T10:19:08.795Z,83.1
2022-12-01T10:20:12.166Z,83.1
2022-12-01T10:21:15.986Z,83
2022-12-01T10:22:18.754Z,83
2022-12-01T10:23:21.671Z,83.1
2022-12-01T10:24:24.523Z,83.2
2022-12-01T10:25:28.200Z,83.1
2022-12-01T10:26:31.330Z,83.1
2022-12-01T10:27:35.308Z,83.1
2022-12-01T10:28:38.640Z,83.1
2022-12-01T10:29:49.375Z,83.1
2022-12-01T10:30:54.324Z,82.9
2022-12-01T10:31:58.230Z,82.5
2022-12-01T10:33:02.156Z,82.4
2022-12-01T10:34:05.244Z,82.4
2022-12-01T10:35:08.020Z,82.3
2022-12-01T10:36:11.787Z,82.3
2022-12-01T10:37:15.877Z,82.2
2022-12-01T10:38:19.360Z,82.2
2022-12-01T10:39:22.437Z,82.3
2022-12-01T10:40:25.496Z,82.1
2022-12-01T10:41:28.618Z,82.1
2022-12-01T10:42:32.394Z,82.1
2022-12-01T10:43:36.097Z,82.1
2022-12-01T10:44:39.575Z,82.1
2022-12-01T10:45:42.686Z,82
2022-12-01T10:46:46.602Z,82.1
2022-12-01T10:47:49.381Z,82.2
2022-12-01T10:48:57.270Z,82.2
2022-12-01T10:50:00.326Z,82.2
2022-12-01T10:51:03.116Z,82.2
2022-12-01T10:52:05.881Z,82.2
2022-12-01T10:53:09.744Z,82.2
2022-12-01T10:54:12.828Z,82.4
2022-12-01T10:55:15.903Z,82.5
2022-12-01T10:56:19.040Z,82.6
2022-12-01T10:57:22.185Z,82.7
2022-12-01T10:58:25.508Z,82.7
2022-12-01T10:59:28.302Z,82.7
2022-12-01T11:01:02.661Z,82.7
2022-12-01T11:02:07.839Z,82.8
2022-12-01T11:03:15.731Z,82.9
2022-12-01T11:04:25.515Z,83.2
2022-12-01T11:05:28.555Z,83.3
2022-12-01T11:06:32.243Z,83.5
2022-12-01T11:07:35.989Z,83.5
2022-12-01T11:08:40.281Z,83.6
2022-12-01T11:09:43.643Z,83.6
2022-12-01T11:10:47.052Z,83.7
2022-12-01T11:11:50.388Z,83.7
2022-12-01T11:12:53.747Z,83.6
2022-12-01T11:13:57.179Z,83.5
2022-12-01T11:15:00.809Z,83.5
2022-12-01T11:16:04.220Z,83.5
2022-12-01T11:17:08.450Z,83.4
2022-12-01T11:18:11.765Z,83.4
2022-12-01T11:19:15.084Z,83.3
2022-12-01T11:20:23.707Z,83.2
2022-12-01T11:21:27.207Z,83.1
2022-12-01T11:22:29.985Z,83.1
2022-12-01T11:23:33.752Z,83.2
2022-12-01T11:24:37.814Z,83.2
2022-12-01T11:25:41.090Z,83.2
2022-12-01T11:26:44.417Z,83.3
2022-12-01T11:27:47.454Z,83.4
2022-12-01T11:28:50.504Z,83.5
2022-12-01T11:29:54.229Z,83.4
2022-12-01T11:30:58.501Z,83.5
2022-12-01T11:32:02.147Z,83.3
2022-12-01T11:33:05.991Z,83.3
2022-12-01T11:34:09.551Z,83.4
2022-12-01T11:35:12.797Z,83.4
2022-12-01T11:36:17.450Z,83.3
2022-12-01T11:37:20.136Z,83.2
2022-12-01T11:38:31.944Z,83.2
2022-12-01T11:39:35.980Z,83.1
2022-12-01T11:40:39.808Z,83.1
2022-12-01T11:41:43.412Z,83.1
2022-12-01T11:42:46.783Z,83
2022-12-01T11:44:35.599Z,86.3
2022-12-01T11:45:55.327Z,83.3
2022-12-01T11:47:25.779Z,82.8
2022-12-01T11:48:29.144Z,82.3
2022-12-01T11:49:32.503Z,82.3
2022-12-01T11:50:36.761Z,82.1
2022-12-01T11:51:41.566Z,81.8
2022-12-01T11:52:46.433Z,81.8
2022-12-01T11:53:50.754Z,81.8
2022-12-01T11:54:54.813Z,81.7
2022-12-01T11:55:58.962Z,81.8
2022-12-01T11:57:35.922Z,81.9
2022-12-01T11:58:39.724Z,82
2022-12-01T11:59:43.502Z,82.2
2022-12-01T12:00:46.611Z,82.2
2022-12-01T12:01:49.310Z,82
2022-12-01T12:02:52.837Z,82
2022-12-01T12:03:56.148Z,81.8
2022-12-01T12:05:00.990Z,81.6
2022-12-01T12:06:41.428Z,81.5
2022-12-01T12:07:46.701Z,81.6
2022-12-01T12:08:52.132Z,81.8
2022-12-01T12:09:56.653Z,81.9
2022-12-01T12:11:00.920Z,82
2022-12-01T12:12:06.486Z,82
2022-12-01T12:13:09.954Z,82
2022-12-01T12:14:13.611Z,81.5
2022-12-01T12:15:17.086Z,81.2
2022-12-01T12:16:20.255Z,81
2022-12-01T12:17:23.337Z,80.8
2022-12-01T12:18:27.176Z,81.2
2022-12-01T12:20:10.095Z,81.2
2022-12-01T12:21:15.977Z,80.9
2022-12-01T12:22:19.697Z,80.8
2022-12-01T12:23:23.071Z,80.6
2022-12-01T12:24:26.402Z,80.5
2022-12-01T12:25:28.659Z,80.4
2022-12-01T12:26:31.797Z,80.3
2022-12-01T12:27:35.562Z,80.3
2022-12-01T12:28:38.567Z,80.1
2022-12-01T12:29:41.272Z,79.8
2022-12-01T12:30:44.655Z,79.8
2022-12-01T12:31:48.534Z,79.6
2022-12-01T12:32:51.387Z,79.6
2022-12-01T12:33:54.535Z,79.5
2022-12-01T12:34:57.312Z,79.4
2022-12-01T12:36:00.680Z,79.5
2022-12-01T12:37:03.721Z,79.7
2022-12-01T12:38:06.834Z,79.8
2022-12-01T12:39:17.838Z,79.6
2022-12-01T12:40:21.097Z,79.7
2022-12-01T12:41:24.563Z,79.8
2022-12-01T12:42:27.044Z,79.9
2022-12-01T12:43:30.573Z,80.1
2022-12-01T12:44:38.855Z,80.1
2022-12-01T12:45:41.972Z,80.2
2022-12-01T12:46:45.475Z,80.5
2022-12-01T12:47:49.448Z,80.5
2022-12-01T12:49:21.774Z,80.6
2022-12-01T12:50:25.428Z,80.2
2022-12-01T12:51:28.562Z,80.4
2022-12-01T12:52:31.621Z,80.4
2022-12-01T12:53:33.758Z,80.3
2022-12-01T12:54:37.615Z,80.2
2022-12-01T12:55:41.824Z,80.2
2022-12-01T12:56:45.021Z,80.2
2022-12-01T12:57:48.461Z,80.2
2022-12-01T12:58:52.539Z,80.1
2022-12-01T12:59:55.595Z,80
2022-12-01T13:00:58.361Z,80
2022-12-01T13:02:01.673Z,79.9
2022-12-01T13:03:04.985Z,79.8
2022-12-01T13:04:08.526Z,79.6
2022-12-01T13:05:11.729Z,79.7
2022-12-01T13:06:14.512Z,79.8
2022-12-01T13:07:17.933Z,79.7
2022-12-01T13:08:20.701Z,79.8
2022-12-01T13:09:24.040Z,80
2022-12-01T13:10:27.112Z,80.1
2022-12-01T13:11:29.807Z,80.4
2022-12-01T13:12:33.134Z,80.5
2022-12-01T13:13:36.582Z,80.6
2022-12-01T13:14:40.348Z,80.5
2022-12-01T13:15:43.395Z,80.5
2022-12-01T13:16:46.924Z,80.2
2022-12-01T13:17:49.625Z,80.2
2022-12-01T13:18:52.397Z,80.1
2022-12-01T13:19:55.550Z,80.1
2022-12-01T13:20:58.648Z,80.1
2022-12-01T13:22:02.440Z,80.2
2022-12-01T13:23:06.375Z,80.2
2022-12-01T13:24:10.156Z,80.3
2022-12-01T13:25:13.326Z,80
2022-12-01T13:26:16.756Z,80.1
2022-12-01T13:27:20.169Z,80.2
2022-12-01T13:28:23.169Z,80.4
2022-12-01T13:29:26.438Z,80.6
2022-12-01T13:30:30.228Z,80.5
2022-12-01T13:31:33.973Z,80.5
2022-12-01T13:32:36.600Z,80.4
2022-12-01T13:33:39.405Z,80.5
2022-12-01T13:34:42.204Z,80.4
2022-12-01T13:35:44.630Z,80.3
2022-12-01T13:36:48.522Z,80.2
2022-12-01T13:37:51.482Z,80.3
2022-12-01T13:38:54.263Z,80.4
2022-12-01T13:39:57.135Z,80.5
2022-12-01T13:41:00.390Z,80.7
2022-12-01T13:42:03.467Z,80.8
2022-12-01T13:43:12.076Z,80.8
2022-12-01T13:44:21.138Z,80.9
2022-12-01T13:45:24.127Z,81
2022-12-01T13:46:28.226Z,81
2022-12-01T13:47:32.002Z,81.1
2022-12-01T13:48:34.852Z,81.2
2022-12-01T13:49:38.028Z,81.2
2022-12-01T13:50:40.884Z,81.3
2022-12-01T13:51:44.020Z,81.4
2022-12-01T13:52:46.784Z,81.3
2022-12-01T13:53:49.877Z,81.2
2022-12-01T13:54:52.932Z,81.2
2022-12-01T13:55:56.348Z,81
2022-12-01T13:56:59.811Z,80.9
2022-12-01T13:58:02.534Z,80.9
2022-12-01T13:59:05.936Z,81
2022-12-01T14:00:09.205Z,81.2
2022-12-01T14:01:13.132Z,81.3
2022-12-01T14:02:18.170Z,81.3
2022-12-01T14:03:21.898Z,81.4
2022-12-01T14:04:25.653Z,81.3
2022-12-01T14:05:28.711Z,81.3
2022-12-01T14:06:32.544Z,81.3
2022-12-01T14:07:36.634Z,81.6
2022-12-01T14:08:39.951Z,81.8
2022-12-01T14:09:43.786Z,81.9
2022-12-01T14:10:46.826Z,82
2022-12-01T14:11:49.606Z,82
2022-12-01T14:12:52.545Z,81.9